• Join FlightAware (Why Join?)
  • Login
  • US Flag 
07:08PM EDT


 

Airport Tracker/Info


-or-


 

Live Flight TrackerFlight Track Log ✈ UAL3756 ✈ 26-Apr-2013 ✈ KMIA - KORD

Flight Track Log - Related Links

Times and Time Zones

All times are in EDT time to prevent confusion due to time zone crossing. See the UAL3756 flight status page for this flight to view local times or setup timezone preferences in your user account.

Time Position Orientation Groundspeed Altitude Reporting Facility
EDT Latitude Longitude Course Direction KTS MPH feet Rate Location/Type
11:29AM 25.7983 -80.2697 79° East 117 135 800  Level Miami Center
11:30AM 25.8103 -80.2033 79° East 221 254 2,600 1,680 Climbing Miami Center
11:31AM 25.8522 -80.1953 10° North 237 273 3,900 2,220 Climbing Miami Center
11:31AM 25.8750 -80.2028 343° North 255 293 4,900 2,400 Climbing Miami Center
11:32AM 25.9228 -80.2181 344° North 275 316 6,300 2,520 Climbing Miami Center
11:32AM 25.9303 -80.2458 287° West 287 330 7,300 2,640 Climbing Miami Center
11:33AM 25.9564 -80.2997 298° West 281 323 9,000 2,640 Climbing Miami Center
11:33AM 25.9661 -80.3300 290° West 285 328 10,000 1,680 Climbing Miami Center
11:34AM 25.9878 -80.3839 294° West 309 356 10,700 1,260 Climbing Miami Center
11:35AM 26.0272 -80.4797 295° West 352 405 12,100 1,500 Climbing Miami Center
11:36AM 26.0683 -80.5828 294° West 358 412 13,700 1,560 Climbing Miami Center
11:37AM 26.1267 -80.6750 305° West 363 418 15,300 1,560 Climbing Miami Center
11:38AM 26.2061 -80.7539 318° Northwest 368 423 16,900 1,440 Climbing Miami Center
11:39AM 26.2853 -80.8328 318° Northwest 386 444 18,200 1,380 Climbing Miami Center
11:40AM 26.3775 -80.8986 327° Northwest 392 451 19,700 1,380 Climbing Miami Center
11:41AM 26.4614 -80.9572 328° Northwest 392 451 21,000 1,260 Climbing Miami Center
11:42AM 26.5703 -81.0258 331° Northwest 398 458 22,300 1,200 Climbing Miami Center
11:43AM 26.6664 -81.0944 327° Northwest 398 458 23,500 1,080 Climbing Miami Center
11:44AM 26.7544 -81.1556 328° Northwest 408 470 24,500 960 Climbing Miami Center
11:45AM 26.8525 -81.2244 328° Northwest 408 470 25,500 840 Climbing Miami Center
11:46AM 26.9528 -81.2933 329° Northwest 413 475 26,300 840 Climbing Miami Center
11:47AM 27.0672 -81.3700 329° Northwest 429 494 27,300 840 Climbing Miami Center
11:48AM 27.1717 -81.4394 329° Northwest 435 501 28,000 720 Climbing Miami Center
11:49AM 27.2656 -81.5061 328° Northwest 440 506 28,800 660 Climbing Miami Center
11:50AM 27.3694 -81.5806 328° Northwest 440 506 29,400 660 Climbing Miami Center
11:51AM 27.4858 -81.6603 329° Northwest 441 507 30,200 720 Climbing Miami Center
11:52AM 27.5897 -81.7347 328° Northwest 441 507 30,900 660 Climbing Miami Center
11:53AM 27.7828 -81.8628 330° Northwest 443 510 32,100 660 Climbing Jacksonville Center
11:54AM 27.8856 -81.9394 327° Northwest 443 510 32,800 600 Climbing Jacksonville Center
11:56AM 27.9954 -82.0080 330° Northwest  Level FlightAware Approximate
11:56AM 28.0911 -82.0786 330° Northwest 432 497 34,000  Level Jacksonville Center
11:57AM 28.1958 -82.1461 330° Northwest 432 497 34,000  Level Jacksonville Center
11:58AM 28.3047 -82.2158 331° Northwest 437 503 34,000  Level Jacksonville Center
11:59AM 28.4114 -82.2836 331° Northwest 437 503 34,000  Level Jacksonville Center
12:00PM 28.5181 -82.3492 332° Northwest 437 503 34,000  Level Jacksonville Center
12:01PM 28.6228 -82.4172 330° Northwest 437 503 34,000  Level Jacksonville Center
12:02PM 28.7128 -82.4758 330° Northwest 432 497 34,000  Level Jacksonville Center
12:03PM 28.8172 -82.5419 331° Northwest 432 497 34,000  Level Jacksonville Center
12:04PM 28.9239 -82.6128 330° Northwest 432 497 34,000  Level Jacksonville Center
12:05PM 29.0283 -82.6789 331° Northwest 427 491 34,000  Level Jacksonville Center
12:06PM 29.1350 -82.7453 331° Northwest 427 491 34,000  Level Jacksonville Center
12:07PM 29.2372 -82.8139 330° Northwest 427 491 34,000  Level Jacksonville Center
12:08PM 29.3417 -82.8806 331° Northwest 427 491 34,000  Level Jacksonville Center
12:09PM 29.4461 -82.9497 330° Northwest 427 491 34,000  Level Jacksonville Center
12:10PM 29.5608 -83.0264 330° Northwest 422 486 34,000 300 Level Jacksonville Center
12:11PM 29.6692 -83.0839 335° Northwest 431 496 34,700 720 Climbing Jacksonville Center
12:12PM 29.7797 -83.1342 338° Northwest 426 490 35,500 600 Climbing Jacksonville Center
12:13PM 29.8842 -83.1825 338° Northwest 415 478 36,000 240 Climbing Jacksonville Center
12:14PM 29.9947 -83.2331 338° Northwest 415 478 36,000  Level Jacksonville Center
12:16PM 30.1139 -83.2841 340° North  Level FlightAware Approximate
12:16PM 30.2136 -83.3325 340° North 415 478 36,000  Level Jacksonville Center
12:17PM 30.3197 -83.3836 337° Northwest 415 478 36,000  Level Jacksonville Center
12:18PM 30.4283 -83.4347 338° Northwest 415 478 36,000  Level Jacksonville Center
12:19PM 30.5367 -83.4858 338° Northwest 415 478 36,000  Level Jacksonville Center
12:20PM 30.6428 -83.5347 338° Northwest 415 478 36,000  Level Jacksonville Center
12:21PM 30.7367 -83.5789 338° Northwest 410 472 36,000  Level Jacksonville Center
12:22PM 30.8447 -83.6331 337° Northwest 415 478 36,000  Level Jacksonville Center
12:23PM 30.9511 -83.6822 338° Northwest 415 478 36,000  Level Jacksonville Center
12:24PM 31.0572 -83.7342 337° Northwest 415 478 36,000  Level Jacksonville Center
12:25PM 31.1653 -83.7861 338° Northwest 415 478 36,000  Level Jacksonville Center
12:26PM 31.2736 -83.8381 338° Northwest 415 478 36,000  Level Jacksonville Center
12:28PM 31.4689 -83.9342 337° Northwest 415 478 36,000  Level Atlanta Center
12:29PM 31.5922 -83.9778 343° North 415 478 36,000  Level Atlanta Center
12:30PM 31.7111 -84.0047 349° North 415 478 36,000  Level Atlanta Center
12:31PM 31.8281 -84.0292 350° North 420 483 36,000  Level Atlanta Center
12:32PM 31.9450 -84.0536 350° North 425 489 36,000  Level Atlanta Center
12:33PM 32.0597 -84.0781 350° North 425 489 36,000  Level Atlanta Center
12:34PM 32.1767 -84.1050 349° North 425 489 36,000  Level Atlanta Center
12:35PM 32.2914 -84.1297 350° North 425 489 36,000  Level Atlanta Center
12:36PM 32.4061 -84.1569 349° North 425 489 36,000  Level Atlanta Center
12:37PM 32.5231 -84.1842 349° North 425 489 36,000  Level Atlanta Center
12:38PM 32.6378 -84.2089 350° North 425 489 36,000  Level Atlanta Center
12:39PM 32.7547 -84.2364 349° North 425 489 36,000  Level Atlanta Center
12:40PM 32.8672 -84.2614 349° North 420 483 36,000  Level Atlanta Center
12:41PM 32.9861 -84.2889 349° North 425 489 36,000  Level Atlanta Center
12:42PM 33.1031 -84.3142 350° North 430 495 36,000  Level Atlanta Center
12:43PM 33.2158 -84.3417 348° North 425 489 36,000  Level Atlanta Center
12:44PM 33.3325 -84.3669 350° North 425 489 36,000  Level Atlanta Center
12:45PM 33.4369 -84.3922 349° North 420 483 36,000  Level Atlanta Center
12:46PM 33.5494 -84.4178 349° North 420 483 36,000  Level Atlanta Center
12:47PM 33.6767 -84.4433 351° North 420 483 36,000  Level Atlanta Center
12:48PM 33.7914 -84.4561 355° North 420 483 36,000  Level Atlanta Center
12:49PM 33.9144 -84.4719 354° North 420 483 36,000  Level Atlanta Center
12:50PM 34.0314 -84.4875 354° North 426 490 36,000 120 Level Atlanta Center
12:51PM 34.1567 -84.4981 356° North 449 517 36,300 360 Climbing Atlanta Center
12:52PM 34.2608 -84.5114 354° North 442 509 36,800 540 Climbing Atlanta Center
12:53PM 34.3756 -84.5244 355° North 423 487 37,400 600 Climbing Atlanta Center
12:54PM 34.4883 -84.5378 354° North 413 475 38,000 300 Climbing Atlanta Center
12:55PM 34.6008 -84.5536 353° North 408 470 38,000  Level Atlanta Center
12:56PM 34.7114 -84.5694 353° North 403 464 38,000  Level Atlanta Center
12:57PM 34.8261 -84.5828 355° North 403 464 38,000  Level Atlanta Center
12:58PM 34.9408 -84.5961 355° North 408 470 38,000  Level Atlanta Center
12:59PM 35.0556 -84.6097 354° North 408 470 38,000  Level Atlanta Center
01:00PM 35.1681 -84.6231 354° North 408 470 38,000  Level Atlanta Center
01:01PM 35.2828 -84.6392 353° North 408 470 38,000  Level Atlanta Center
01:02PM 35.3933 -84.6503 355° North 408 470 38,000  Level Atlanta Center
01:03PM 35.5061 -84.6664 353° North 408 470 38,000  Level Atlanta Center
01:04PM 35.6164 -84.6800 354° North 408 470 38,000  Level Atlanta Center
01:05PM 35.7269 -84.6936 354° North 408 470 38,000  Level Atlanta Center
01:06PM 35.8481 -84.7022 357° North 403 464 38,000  Level Atlanta Center
01:08PM 36.0447 -84.7317 353° North 392 451 38,000  Level Indianapolis Center
01:09PM 36.1531 -84.7453 354° North 394 453 38,000  Level Indianapolis Center
01:10PM 36.2611 -84.7603 354° North 392 451 38,000  Level Indianapolis Center
01:11PM 36.3686 -84.7728 355° North 389 448 38,000  Level Indianapolis Center
01:12PM 36.4783 -84.7642 North 400 460 38,000  Level Indianapolis Center
01:13PM 36.6139 -84.7247 13° North 415 478 38,000  Level Indianapolis Center
01:14PM 36.7244 -84.6919 13° North 410 472 38,000  Level Indianapolis Center
01:15PM 36.8364 -84.6583 14° North 411 473 38,000  Level Indianapolis Center
01:16PM 36.9486 -84.6261 13° North 413 475 38,000  Level Indianapolis Center
01:17PM 37.0722 -84.5872 14° North 414 476 38,000  Level Indianapolis Center
01:18PM 37.1872 -84.5536 13° North 421 484 38,000  Level Indianapolis Center
01:19PM 37.3008 -84.5192 14° North 419 482 38,000  Level Indianapolis Center
01:20PM 37.4144 -84.4858 13° North 416 479 38,000  Level Indianapolis Center
01:21PM 37.5242 -84.4233 24° Northeast 434 499 38,000  Level Indianapolis Center
01:22PM 37.6533 -84.3333 29° Northeast 448 516 38,000  Level Indianapolis Center
01:24PM 37.7628 -84.2622 27° Northeast 442 509 38,000  Level Indianapolis Center
01:25PM 37.8711 -84.1875 29° Northeast 441 507 38,000  Level Indianapolis Center
01:26PM 37.9803 -84.1133 28° Northeast 442 509 38,000  Level Indianapolis Center
01:27PM 38.0889 -84.0375 29° Northeast 442 509 38,000  Level Indianapolis Center
01:28PM 38.1975 -83.9572 30° Northeast 448 516 38,000  Level Indianapolis Center
01:29PM 38.3244 -83.8672 29° Northeast 445 512 38,000 -540 Level Indianapolis Center
01:30PM 38.4322 -83.8406 11° North 390 449 37,000 -1,020 Descending Indianapolis Center
01:31PM 38.5108 -83.9025 328° Northwest 335 386 36,000 -540 Descending Indianapolis Center
01:32PM 38.5750 -83.9914 313° West 339 390 36,000  Level Indianapolis Center
01:33PM 38.6417 -84.0794 314° West 344 396 36,000  Level Indianapolis Center
01:34PM 38.7242 -84.1703 319° Northwest 350 403 36,000  Level Indianapolis Center
01:35PM 38.8069 -84.2378 328° Northwest 350 403 36,000 -180 Level Indianapolis Center
01:36PM 38.8892 -84.3064 327° Northwest 349 402 35,700 -780 Descending Indianapolis Center
01:37PM 38.9722 -84.3761 327° Northwest 353 406 34,500 -1,140 Descending Indianapolis Center
01:38PM 39.0575 -84.4469 327° Northwest 359 413 33,400 -1,080 Descending Indianapolis Center
01:39PM 39.1444 -84.5197 327° Northwest 365 420 32,300 -1,320 Descending Indianapolis Center
01:40PM 39.2308 -84.5925 327° Northwest 366 421 30,700 -1,500 Descending Indianapolis Center
01:41PM 39.3194 -84.6678 327° Northwest 374 430 29,200 -1,320 Descending Indianapolis Center
01:42PM 39.4050 -84.7400 327° Northwest 367 422 28,000 -600 Descending Indianapolis Center
01:43PM 39.5078 -84.8275 327° Northwest 373 429 28,000  Level Indianapolis Center
01:44PM 39.5953 -84.9031 326° Northwest 390 449 28,000  Level Indianapolis Center
01:45PM 39.6903 -84.9828 327° Northwest 400 460 28,000  Level Indianapolis Center
01:46PM 39.7856 -85.0639 327° Northwest 405 466 28,000 -300 Level Indianapolis Center
01:47PM 39.8792 -85.1439 327° Northwest 403 464 27,500 -900 Descending Indianapolis Center
01:48PM 39.9886 -85.2378 327° Northwest 402 463 26,200 -780 Descending Indianapolis Center
01:49PM 40.0808 -85.3186 326° Northwest 398 458 26,000 -120 Descending Indianapolis Center
01:50PM 40.1750 -85.3997 327° Northwest 403 464 26,000 -300 Level Indianapolis Center
01:51PM 40.2211 -85.4386 327° Northwest 404 465 25,600 -1,020 Descending Chicago Center
01:52PM 40.3042 -85.5289 320° Northwest 391 450 24,400 -780 Descending Chicago Center
01:53PM 40.3847 -85.6497 311° West 375 432 24,000 -240 Descending Chicago Center
01:54PM 40.4539 -85.7561 311° West 380 437 24,000 -300 Level Chicago Center
01:55PM 40.5250 -85.8658 310° West 391 450 23,400 -900 Descending Chicago Center
01:56PM 40.5947 -85.9731 311° West 387 445 22,200 -1,200 Descending Chicago Center
01:57PM 40.6622 -86.0789 310° West 379 436 21,000 -600 Descending Chicago Center
01:58PM 40.7292 -86.1847 310° West 348 400 21,000  Level Chicago Center
01:59PM 40.7936 -86.2850 310° West 354 407 21,000  Level Chicago Center
02:00PM 40.8575 -86.3836 311° West 353 406 21,000  Level Chicago Center
02:01PM 40.9194 -86.4836 309° West 351 404 21,000  Level Chicago Center
02:02PM 40.9825 -86.5833 310° West 353 406 21,000 -780 Level Chicago Center
02:03PM 41.0569 -86.6992 310° West 344 396 19,500 -1,620 Descending Chicago Center
02:05PM 41.1667 -86.8833 308° West 350 403 16,600 -1,620 Descending Chicago TRACON
02:05PM 41.1872 -86.9067 319° Northwest 351 404 16,200 -1,680 Descending Chicago Center
02:06PM 41.2472 -87.0022 310° West 341 392 14,400 -1,800 Descending Chicago Center
02:07PM 41.3067 -87.1014 309° West 345 397 12,500 -1,680 Descending Chicago Center
02:08PM 41.3708 -87.2003 311° West 353 406 11,000 -960 Descending Chicago Center
02:09PM 41.4167 -87.2667 313° West 345 397 11,000  Level Chicago TRACON
02:10PM 41.5000 -87.3500 323° Northwest 342 394 11,000 -300 Level Chicago TRACON
02:11PM 41.5264 -87.3853 315° West 343 395 10,600 -720 Descending Chicago Center
02:12PM 41.5994 -87.4650 321° Northwest 343 395 10,000 -300 Descending Chicago Center
02:13PM 41.6708 -87.5439 320° Northwest 338 389 10,000 -600 Level Chicago Center
02:14PM 41.7294 -87.6092 320° Northwest 288 331 8,800 -1,080 Descending Chicago Center
02:14PM 41.7667 -87.6500 321° Northwest 264 304 8,400 -840 Descending Chicago TRACON
02:15PM 41.8167 -87.7000 323° Northwest 232 267 7,600 -720 Descending Chicago TRACON
02:16PM 41.8833 -87.7167 349° North 249 287 7,000 -300 Descending Chicago TRACON
02:17PM 41.9500 -87.7167 360° North 248 285 7,000 -300 Level Chicago TRACON
02:18PM 42.0167 -87.7000 11° North 256 295 6,400 -900 Descending Chicago TRACON
02:19PM 42.0667 -87.6500 37° Northeast 240 276 5,200 -1,200 Descending Chicago TRACON
02:20PM 42.1167 -87.6667 346° North 182 209 4,000 -600 Descending Chicago TRACON
02:21PM 42.1333 -87.7167 294° West 163 188 4,000 -120 Level Chicago TRACON
02:22PM 42.1167 -87.7667 246° West 151 174 3,800 -540 Descending Chicago TRACON
02:23PM 42.0833 -87.8000 217° Southwest 158 182 3,000 -900 Descending Chicago TRACON
02:24PM 42.0500 -87.8333 217° Southwest 147 169 2,100 -840 Descending Chicago TRACON
02:25PM 42.0167 -87.8667 217° Southwest 115 132 1,300 -780 Descending Chicago TRACON
02:27PM 41.9817 -87.9067 289° West  Level Estimated
02:34PM 41.9817 -87.9067 289° West  Level Estimated